Time;durP1;ratioP1;P1;durP2;ratioP2;P2;SDS_P1;SDS_P2;PMS_P1;PMS_P2;Temp;Humidity;BMP_temperature;BMP_pressure;BME280_temperature;BME280_humidity;BME280_pressure;Samples;Min_cycle;Max_cycle;Signal;HPM_P1;HPM_P2
2022/01/24 00:01:37;;;;;;;25.77;14.52;;;;;;;;;;5102407;28;20044;-86
2022/01/24 00:04:03;;;;;;;26.95;16.00;;;;;;;;;;5099849;28;20040;-86
2022/01/24 00:06:31;;;;;;;30.10;19.05;;;;;;;;;;5083664;28;20043;-86
2022/01/24 00:08:58;;;;;;;25.08;16.23;;;;;;;;;;5092669;28;20497;-84
2022/01/24 00:11:30;;;;;;;29.48;19.63;;;;;;;;;;5097346;28;20118;-86
2022/01/24 00:16:47;;;;;;;24.65;11.95;;;;;;;;;;5093420;27;20047;-86
2022/01/24 00:27:25;;;;;;;25.33;14.00;;;;;;;;;;5089166;28;20528;-87
2022/01/24 00:29:51;;;;;;;20.83;10.40;;;;;;;;;;5083284;28;20440;-86
2022/01/24 00:32:17;;;;;;;25.48;16.45;;;;;;;;;;5079783;28;20043;-87
2022/01/24 00:34:43;;;;;;;29.40;18.52;;;;;;;;;;5094590;28;20040;-87
2022/01/24 00:37:09;;;;;;;26.52;14.45;;;;;;;;;;5085886;28;20132;-87
2022/01/24 00:39:36;;;;;;;7.55;5.10;;;;;;;;;;5105011;28;20047;-83
2022/01/24 00:42:18;;;;;;;18.65;11.55;;;;;;;;;;5098175;28;20039;-86
2022/01/24 00:55:20;;;;;;;6.43;3.90;;;;;;;;;;5091712;28;20052;-85
2022/01/24 00:57:46;;;;;;;12.70;7.20;;;;;;;;;;5082652;28;20128;-87
2022/01/24 01:00:12;;;;;;;12.07;7.10;;;;;;;;;;5083431;28;20104;-86
2022/01/24 01:02:38;;;;;;;13.35;6.20;;;;;;;;;;5089486;28;20264;-86
2022/01/24 01:05:21;;;;;;;10.70;6.03;;;;;;;;;;5091167;28;20059;-87
2022/01/24 01:18:08;;;;;;;11.73;6.03;;;;;;;;;;5084729;28;20111;-88
2022/01/24 01:19:04;;;;;;;9.02;5.75;;;;;;;;;;5095713;28;20339;-88
2022/01/24 01:21:30;;;;;;;11.32;6.45;;;;;;;;;;5083851;28;20039;-85
2022/01/24 01:23:58;;;;;;;8.82;4.72;;;;;;;;;;5095189;28;20508;-87
2022/01/24 01:28:57;;;;;;;9.57;4.95;;;;;;;;;;5090190;28;20405;-86
2022/01/24 01:31:36;;;;;;;10.00;5.47;;;;;;;;;;5077361;28;20083;-86
2022/01/24 01:53:16;;;;;;;11.88;6.07;;;;;;;;;;5093309;28;20302;-87
2022/01/24 01:55:42;;;;;;;7.03;3.55;;;;;;;;;;5091959;28;20051;-85
2022/01/24 01:58:13;;;;;;;12.27;6.97;;;;;;;;;;5073197;28;20043;-82
2022/01/24 02:00:44;;;;;;;10.40;6.07;;;;;;;;;;5084807;28;20627;-85
2022/01/24 02:03:10;;;;;;;9.48;3.75;;;;;;;;;;5082546;28;20040;-86
2022/01/24 02:05:37;;;;;;;9.65;5.95;;;;;;;;;;5087275;28;20070;-85
2022/01/24 02:08:03;;;;;;;7.65;4.03;;;;;;;;;;5075876;28;20036;-86
2022/01/24 02:10:32;;;;;;;15.23;6.28;;;;;;;;;;5085182;28;20459;-85
2022/01/24 02:12:58;;;;;;;18.42;10.48;;;;;;;;;;5091286;28;20062;-86
2022/01/24 02:18:25;;;;;;;11.38;6.60;;;;;;;;;;5095725;28;20048;-87
2022/01/24 02:23:46;;;;;;;8.33;4.67;;;;;;;;;;5094808;28;20521;-85
2022/01/24 02:26:18;;;;;;;8.05;4.28;;;;;;;;;;5099990;28;20286;-85
2022/01/24 02:29:01;;;;;;;15.05;8.85;;;;;;;;;;5090328;28;20039;-85
2022/01/24 02:31:42;;;;;;;6.38;4.65;;;;;;;;;;5102984;28;20048;-84
2022/01/24 02:34:20;;;;;;;12.68;8.27;;;;;;;;;;5092989;28;20051;-86
2022/01/24 02:36:46;;;;;;;15.93;9.10;;;;;;;;;;5086316;28;20054;-85
2022/01/24 02:50:36;;;;;;;13.80;5.93;;;;;;;;;;5098207;28;20103;-86
2022/01/24 02:53:03;;;;;;;6.82;4.10;;;;;;;;;;5094307;28;20052;-86
2022/01/24 02:55:29;;;;;;;8.70;5.00;;;;;;;;;;5080874;28;20085;-86
2022/01/24 02:57:55;;;;;;;10.27;5.07;;;;;;;;;;5098849;28;20040;-88
2022/01/24 03:00:21;;;;;;;9.85;5.57;;;;;;;;;;5092451;28;20446;-87
2022/01/24 03:02:48;;;;;;;14.05;7.63;;;;;;;;;;5099140;28;20035;-86
2022/01/24 03:05:14;;;;;;;14.32;6.75;;;;;;;;;;5100350;28;20078;-83
2022/01/24 03:07:40;;;;;;;17.50;10.32;;;;;;;;;;5099431;28;20040;-86
2022/01/24 03:10:13;;;;;;;19.42;11.35;;;;;;;;;;5097098;28;20131;-85
2022/01/24 03:12:45;;;;;;;17.17;10.52;;;;;;;;;;5089895;28;20047;-85
2022/01/24 03:15:11;;;;;;;21.95;12.48;;;;;;;;;;5095405;27;20066;-85
2022/01/24 03:17:38;;;;;;;16.13;8.63;;;;;;;;;;5095705;28;20556;-85
2022/01/24 03:20:04;;;;;;;14.98;8.70;;;;;;;;;;5098192;28;20052;-86
2022/01/24 03:22:30;;;;;;;14.60;8.07;;;;;;;;;;5104766;27;20043;-87
2022/01/24 03:24:56;;;;;;;14.63;7.50;;;;;;;;;;5082852;28;20047;-86
2022/01/24 03:27:22;;;;;;;16.42;11.10;;;;;;;;;;5099765;28;20031;-86
2022/01/24 03:29:49;;;;;;;20.85;12.75;;;;;;;;;;5104139;27;20524;-87
2022/01/24 03:32:15;;;;;;;18.65;12.32;;;;;;;;;;5096190;28;20039;-86
2022/01/24 03:34:41;;;;;;;19.25;10.85;;;;;;;;;;5107439;28;20078;-86
2022/01/24 03:37:08;;;;;;;22.50;12.93;;;;;;;;;;5091747;28;20078;-85
2022/01/24 03:39:34;;;;;;;21.70;11.32;;;;;;;;;;5101693;28;20098;-86
2022/01/24 03:42:01;;;;;;;20.48;12.45;;;;;;;;;;5101585;28;20040;-86
2022/01/24 03:44:28;;;;;;;21.63;12.48;;;;;;;;;;5108715;28;20044;-86
2022/01/24 03:49:45;;;;;;;24.67;13.60;;;;;;;;;;5093346;28;20416;-86
2022/01/24 03:52:15;;;;;;;27.77;15.02;;;;;;;;;;5095903;28;20043;-85
2022/01/24 03:54:44;;;;;;;23.70;13.13;;;;;;;;;;5083915;27;20058;-85
2022/01/24 03:57:14;;;;;;;27.00;14.32;;;;;;;;;;5081320;28;20497;-86
2022/01/24 03:59:41;;;;;;;25.38;15.57;;;;;;;;;;5101994;28;20160;-85
2022/01/24 04:02:07;;;;;;;24.05;14.07;;;4.90;99.90;;;;;;5094292;28;20032;-86
2022/01/24 04:04:34;;;;;;;23.58;13.68;;;;;;;;;;5081420;28;20526;-85
2022/01/24 04:07:00;;;;;;;22.50;13.38;;;;;;;;;;5088605;27;20028;-87
2022/01/24 04:09:26;;;;;;;23.40;13.38;;;;;;;;;;5102625;27;20142;-86
2022/01/24 04:11:56;;;;;;;26.40;15.07;;;;;;;;;;5111705;27;20588;-86
2022/01/24 04:14:36;;;;;;;25.30;15.23;;;;;;;;;;5102939;28;20101;-83
2022/01/24 04:22:20;;;;;;;23.30;14.00;;;;;;;;;;5096245;27;20193;-85
2022/01/24 04:24:48;;;;;;;22.77;13.60;;;;;;;;;;5102252;28;20090;-86
2022/01/24 04:27:14;;;;;;;24.85;12.02;;;4.90;99.90;;;;;;5079924;28;20078;-86
2022/01/24 04:29:41;;;;;;;22.63;11.57;;;;;;;;;;5099532;27;20036;-85
2022/01/24 04:32:07;;;;;;;22.80;12.85;;;;;;;;;;5091286;28;20127;-86
2022/01/24 04:34:33;;;;;;;19.67;11.20;;;;;;;;;;5089255;28;20047;-86
2022/01/24 04:36:59;;;;;;;24.65;13.50;;;;;;;;;;5088775;28;20063;-87
2022/01/24 04:39:26;;;;;;;23.30;11.05;;;;;;;;;;5082178;27;20039;-86
2022/01/24 04:41:55;;;;;;;27.92;15.70;;;;;;;;;;5078612;28;20134;-86
2022/01/24 04:53:04;;;;;;;25.95;12.18;;;;;;;;;;5101758;28;20051;-85
2022/01/24 04:55:30;;;;;;;28.27;14.18;;;;;;;;;;5077062;28;20043;-85
2022/01/24 04:57:56;;;;;;;30.55;15.98;;;;;;;;;;5086150;28;20104;-88
2022/01/24 05:00:22;;;;;;;27.95;16.83;;;;;;;;;;5096112;28;20088;-87
2022/01/24 05:02:48;;;;;;;24.98;13.45;;;;;;;;;;5098827;28;20042;-87
2022/01/24 05:05:19;;;;;;;26.88;11.70;;;;;;;;;;5087676;28;20135;-87
2022/01/24 05:07:45;;;;;;;31.45;17.15;;;;;;;;;;5091466;28;20068;-87
2022/01/24 05:23:38;;;;;;;31.10;16.90;;;;;;;;;;5084969;28;20076;-85
2022/01/24 05:26:08;;;;;;;33.83;17.35;;;;;;;;;;5093358;28;20440;-87
2022/01/24 05:28:36;;;;;;;27.90;14.60;;;4.80;99.90;;;;;;5101208;28;20039;-85
2022/01/24 05:31:02;;;;;;;28.85;15.30;;;;;;;;;;5089007;28;20119;-86
2022/01/24 05:33:29;;;;;;;31.35;17.65;;;;;;;;;;5102242;28;20051;-87
2022/01/24 05:35:55;;;;;;;36.60;18.75;;;;;;;;;;5099496;28;20062;-86
2022/01/24 05:38:22;;;;;;;34.42;19.25;;;;;;;;;;5092475;28;20505;-86
2022/01/24 05:40:48;;;;;;;30.65;17.50;;;;;;;;;;5092248;28;20595;-86
2022/01/24 05:43:15;;;;;;;32.72;16.48;;;;;;;;;;5098180;28;20116;-86
2022/01/24 05:45:44;;;;;;;30.35;16.55;;;;;;;;;;5094441;28;20035;-85
2022/01/24 05:48:10;;;;;;;32.15;18.92;;;;;;;;;;5074023;28;20052;-85
2022/01/24 05:50:36;;;;;;;35.28;19.17;;;;;;;;;;5082301;28;20043;-84
2022/01/24 05:53:02;;;;;;;31.92;17.17;;;;;;;;;;5105527;28;20081;-86
2022/01/24 05:55:28;;;;;;;30.02;17.38;;;;;;;;;;5109590;28;20047;-86
2022/01/24 05:57:54;;;;;;;29.33;16.85;;;;;;;;;;5106330;28;20040;-86
2022/01/24 06:00:22;;;;;;;30.45;17.08;;;4.90;99.90;;;;;;5080380;28;20048;-86
2022/01/24 06:02:48;;;;;;;36.25;21.13;;;;;;;;;;5078903;28;20036;-87
2022/01/24 06:05:14;;;;;;;33.50;21.17;;;;;;;;;;5091997;28;20469;-85
2022/01/24 06:07:41;;;;;;;29.55;15.20;;;;;;;;;;5090571;28;20043;-87
2022/01/24 06:10:07;;;;;;;35.55;21.83;;;;;;;;;;5071680;28;20483;-86
2022/01/24 06:12:33;;;;;;;32.75;19.45;;;;;;;;;;5098492;28;20447;-86
2022/01/24 06:14:59;;;;;;;29.20;17.98;;;;;;;;;;5097144;28;20055;-85
2022/01/24 06:17:25;;;;;;;33.72;20.50;;;;;;;;;;5093542;28;20581;-85
2022/01/24 06:19:52;;;;;;;36.05;21.23;;;;;;;;;;5096833;28;20044;-87
2022/01/24 06:22:20;;;;;;;32.83;18.98;;;;;;;;;;5098431;28;20770;-86
2022/01/24 06:24:46;;;;;;;34.28;20.75;;;;;;;;;;5076253;28;20561;-86
2022/01/24 06:27:12;;;;;;;28.80;15.05;;;;;;;;;;5092914;28;20043;-85
2022/01/24 06:29:38;;;;;;;31.60;17.80;;;;;;;;;;5078065;28;20074;-85
2022/01/24 06:32:05;;;;;;;35.58;19.15;;;;;;;;;;5094193;28;20054;-82
2022/01/24 06:34:31;;;;;;;29.38;16.67;;;;;;;;;;5074595;28;20069;-86
2022/01/24 06:36:57;;;;;;;34.65;17.63;;;;;;;;;;5092649;28;20065;-87
2022/01/24 06:39:23;;;;;;;32.85;18.23;;;;;;;;;;5096411;28;20082;-86
2022/01/24 06:42:07;;;;;;;37.28;19.63;;;;;;;;;;5095174;28;20047;-87
2022/01/24 06:44:33;;;;;;;35.67;19.17;;;;;;;;;;5096397;28;20040;-86
2022/01/24 06:46:59;;;;;;;33.70;18.30;;;;;;;;;;5080120;28;20112;-86
2022/01/24 06:49:25;;;;;;;36.90;19.90;;;;;;;;;;5087634;28;20389;-87
2022/01/24 06:51:51;;;;;;;38.40;21.70;;;;;;;;;;5091073;28;20050;-86
2022/01/24 06:54:17;;;;;;;32.15;20.02;;;;;;;;;;5097184;28;20476;-86
2022/01/24 06:56:43;;;;;;;34.05;19.75;;;;;;;;;;5078650;28;20071;-85
2022/01/24 06:59:09;;;;;;;32.22;19.70;;;;;;;;;;5093919;28;20872;-85
2022/01/24 07:01:36;;;;;;;35.03;21.00;;;;;;;;;;5075840;28;20054;-85
2022/01/24 07:04:03;;;;;;;35.15;19.92;;;;;;;;;;5096943;28;20296;-84
2022/01/24 07:06:29;;;;;;;31.63;17.33;;;;;;;;;;5079499;28;20092;-84
2022/01/24 07:08:55;;;;;;;32.22;18.90;;;;;;;;;;5089446;28;20073;-84
2022/01/24 07:11:21;;;;;;;35.15;18.10;;;;;;;;;;5089262;28;20043;-86
2022/01/24 07:13:49;;;;;;;32.10;17.60;;;;;;;;;;5070485;28;20035;-85
2022/01/24 07:16:15;;;;;;;35.25;17.83;;;;;;;;;;5069846;28;20047;-86
2022/01/24 07:18:58;;;;;;;28.75;14.57;;;;;;;;;;5096834;28;20079;-85
2022/01/24 07:21:24;;;;;;;26.98;13.30;;;;;;;;;;5097312;28;20042;-84
2022/01/24 07:23:50;;;;;;;30.38;16.83;;;;;;;;;;5077695;28;20127;-86
2022/01/24 07:26:16;;;;;;;34.35;17.77;;;;;;;;;;5082989;28;20126;-89
2022/01/24 07:28:44;;;;;;;27.55;13.23;;;;;;;;;;5091192;28;20039;-87
2022/01/24 07:31:11;;;;;;;34.55;18.13;;;;;;;;;;5101783;28;20130;-86
2022/01/24 07:33:40;;;;;;;34.25;18.83;;;;;;;;;;5081692;28;20522;-86
2022/01/24 07:36:06;;;;;;;37.95;18.58;;;;;;;;;;5102645;28;20465;-83
2022/01/24 07:38:32;;;;;;;36.60;20.52;;;;;;;;;;5109897;28;20051;-85
2022/01/24 07:41:00;;;;;;;38.63;20.67;;;;;;;;;;5082632;28;20122;-86
2022/01/24 07:43:26;;;;;;;39.75;22.25;;;;;;;;;;5095825;28;20052;-86
2022/01/24 07:45:52;;;;;;;36.95;18.85;;;;;;;;;;5101153;28;20038;-87
2022/01/24 07:48:19;;;;;;;36.15;19.80;;;;;;;;;;5093150;28;20087;-86
2022/01/24 07:50:46;;;;;;;40.95;21.65;;;;;;;;;;5092223;28;20090;-87
2022/01/24 07:53:13;;;;;;;34.97;18.38;;;;;;;;;;5088027;28;20052;-86
2022/01/24 07:55:40;;;;;;;36.30;18.77;;;;;;;;;;5087546;28;20055;-84
2022/01/24 07:58:06;;;;;;;37.90;21.02;;;;;;;;;;5093562;28;20051;-86
2022/01/24 08:00:33;;;;;;;40.53;21.25;;;4.80;99.90;;;;;;5100996;28;20050;-84
2022/01/24 08:03:00;;;;;;;39.08;20.80;;;;;;;;;;5097758;28;20040;-89
2022/01/24 08:05:26;;;;;;;37.25;19.08;;;;;;;;;;5088674;28;20044;-87
2022/01/24 08:07:52;;;;;;;33.63;18.33;;;;;;;;;;5095500;28;20039;-85
2022/01/24 08:10:19;;;;;;;35.97;19.85;;;;;;;;;;5075438;28;20043;-85
2022/01/24 08:12:45;;;;;;;39.65;20.13;;;;;;;;;;5077822;28;20040;-84
2022/01/24 08:15:14;;;;;;;38.72;20.77;;;;;;;;;;5095102;28;20135;-84
2022/01/24 08:17:41;;;;;;;35.55;19.65;;;;;;;;;;5101670;28;20503;-84
2022/01/24 08:20:07;;;;;;;33.70;17.58;;;;;;;;;;5096191;28;20528;-83
2022/01/24 08:22:33;;;;;;;36.83;20.33;;;;;;;;;;5097342;28;20175;-84
2022/01/24 08:25:04;;;;;;;35.42;20.27;;;;;;;;;;5090326;28;20561;-84
2022/01/24 08:27:34;;;;;;;34.20;18.83;;;;;;;;;;5097930;28;20043;-84
2022/01/24 08:30:01;;;;;;;38.90;19.95;;;;;;;;;;5105423;27;20093;-83
2022/01/24 08:32:27;;;;;;;38.63;17.55;;;;;;;;;;5093003;28;20122;-86
2022/01/24 08:34:54;;;;;;;31.90;14.60;;;;;;;;;;5073173;28;20032;-86
2022/01/24 08:37:20;;;;;;;32.92;18.77;;;;;;;;;;5080998;28;20079;-88
2022/01/24 08:39:46;;;;;;;35.22;15.73;;;;;;;;;;5094970;28;20168;-83
2022/01/24 08:47:27;;;;;;;37.53;19.23;;;5.00;99.90;;;;;;5100098;28;20177;-83
2022/01/24 08:49:54;;;;;;;35.17;18.58;;;;;;;;;;5089396;28;20048;-84
2022/01/24 08:52:21;;;;;;;35.33;17.42;;;5.10;99.90;;;;;;5098297;27;20039;-86
2022/01/24 08:54:47;;;;;;;35.38;18.92;;;5.20;99.90;;;;;;5073728;28;20036;-83
2022/01/24 08:57:13;;;;;;;34.38;19.30;;;;;;;;;;5073582;28;20109;-85
2022/01/24 08:59:40;;;;;;;29.88;16.38;;;;;;;;;;5077197;28;20040;-83
2022/01/24 09:02:06;;;;;;;53.25;22.05;;;;;;;;;;5075210;28;20051;-84
2022/01/24 09:04:33;;;;;;;32.35;15.98;;;;;;;;;;5078854;28;20036;-88
2022/01/24 09:07:03;;;;;;;29.40;14.15;;;;;;;;;;5096684;28;20090;-83
2022/01/24 09:09:29;;;;;;;38.30;18.95;;;;;;;;;;5086769;28;20265;-82
2022/01/24 09:11:55;;;;;;;31.85;17.20;;;;;;;;;;5076142;28;20051;-82
2022/01/24 09:14:22;;;;;;;35.50;17.95;;;;;;;;;;5097569;27;20047;-87
2022/01/24 09:16:48;;;;;;;32.83;17.58;;;;;;;;;;5096588;28;20470;-83
2022/01/24 09:19:15;;;;;;;35.70;18.17;;;;;;;;;;5091370;28;20043;-83
2022/01/24 09:21:41;;;;;;;35.38;18.58;;;;;;;;;;5094209;28;20084;-82
2022/01/24 09:24:07;;;;;;;33.95;18.20;;;;;;;;;;5074640;28;20043;-81
2022/01/24 09:26:34;;;;;;;36.17;20.08;;;;;;;;;;5094874;28;20035;-82
2022/01/24 09:29:00;;;;;;;37.72;17.73;;;;;;;;;;5082402;27;20123;-84
2022/01/24 09:31:26;;;;;;;35.70;20.65;;;;;;;;;;5099146;27;20096;-83
2022/01/24 09:33:53;;;;;;;37.00;19.83;;;;;;;;;;5087937;28;20141;-82
2022/01/24 09:36:19;;;;;;;39.65;20.90;;;;;;;;;;5090455;28;20066;-83
2022/01/24 09:38:46;;;;;;;35.97;19.63;;;;;;;;;;5094708;28;20113;-82
2022/01/24 09:41:13;;;;;;;41.80;20.40;;;;;;;;;;5098611;28;20046;-82
2022/01/24 09:43:40;;;;;;;43.70;22.20;;;;;;;;;;5090770;28;20044;-82
2022/01/24 09:46:08;;;;;;;49.33;22.70;;;;;;;;;;5088937;28;20499;-83
2022/01/24 09:48:35;;;;;;;31.92;17.98;;;;;;;;;;5068533;28;20054;-83
2022/01/24 09:51:01;;;;;;;38.75;21.05;;;;;;;;;;5096325;28;20167;-82
2022/01/24 09:53:27;;;;;;;49.28;26.55;;;;;;;;;;5098113;28;20044;-83
2022/01/24 09:55:53;;;;;;;38.50;20.92;;;;;;;;;;5094648;28;20041;-82
2022/01/24 09:58:20;;;;;;;36.35;18.90;;;;;;;;;;5098964;27;20044;-83
2022/01/24 10:00:46;;;;;;;40.47;21.10;;;;;;;;;;5092140;27;20054;-82
2022/01/24 10:03:12;;;;;;;36.78;20.30;;;;;;;;;;5092613;28;20043;-83
2022/01/24 10:05:40;;;;;;;38.10;18.67;;;;;;;;;;5089478;28;20045;-83
2022/01/24 10:08:07;;;;;;;31.95;16.88;;;;;;;;;;5092627;28;20110;-83
2022/01/24 10:10:46;;;;;;;31.55;16.92;;;;;;;;;;5096401;28;20048;-83
2022/01/24 10:16:33;;;;;;;32.03;16.20;;;5.60;28.70;;;;;;5086926;28;20054;-83
2022/01/24 10:19:07;;;;;;;39.95;20.08;;;;;;;;;;5089630;28;20047;-83
2022/01/24 10:21:53;;;;;;;40.45;22.13;;;5.70;61.40;;;;;;5093440;28;20046;-83
2022/01/24 10:24:38;;;;;;;38.85;20.17;;;;;;;;;;5076045;28;20068;-83
2022/01/24 10:27:10;;;;;;;39.78;22.63;;;;;;;;;;5093701;28;20600;-83
2022/01/24 10:29:49;;;;;;;35.95;19.75;;;;;;;;;;5088338;28;20052;-84
2022/01/24 10:32:34;;;;;;;37.42;19.55;;;;;;;;;;5087082;28;20036;-83
2022/01/24 10:35:19;;;;;;;39.92;21.67;;;;;;;;;;5073083;28;20504;-81
2022/01/24 10:37:48;;;;;;;41.03;22.77;;;;;;;;;;5085405;28;20040;-80
2022/01/24 10:40:30;;;;;;;39.00;22.67;;;;;;;;;;5090364;28;20071;-80
2022/01/24 10:43:15;;;;;;;34.25;16.63;;;;;;;;;;5089053;28;20501;-81
2022/01/24 10:45:45;;;;;;;42.40;23.08;;;;;;;;;;5097529;28;20075;-81
2022/01/24 10:48:11;;;;;;;40.40;23.83;;;;;;;;;;5072065;28;20052;-81
2022/01/24 10:50:38;;;;;;;39.33;20.95;;;;;;;;;;5094609;28;20036;-82
2022/01/24 10:53:12;;;;;;;41.97;23.55;;;;;;;;;;5090430;28;20580;-81
2022/01/24 10:55:42;;;;;;;39.30;22.42;;;;;;;;;;5073540;28;20102;-81
2022/01/24 10:58:08;;;;;;;39.85;22.15;;;;;;;;;;5084871;28;20063;-80
2022/01/24 11:00:36;;;;;;;40.22;22.70;;;;;;;;;;5069598;28;20048;-80
2022/01/24 11:03:06;;;;;;;45.15;25.85;;;;;;;;;;5089903;28;20058;-83
2022/01/24 11:05:41;;;;;;;45.70;26.20;;;;;;;;;;5094829;28;20167;-82
2022/01/24 11:08:12;;;;;;;43.20;24.98;;;;;;;;;;5064700;28;20044;-82
2022/01/24 11:10:49;;;;;;;40.05;23.88;;;;;;;;;;5091663;28;20554;-82
2022/01/24 11:13:21;;;;;;;45.15;25.17;;;;;;;;;;5090203;28;20132;-82
2022/01/24 11:15:58;;;;;;;45.53;27.55;;;;;;;;;;5098847;28;20044;-82
2022/01/24 11:18:24;;;;;;;40.35;23.42;;;;;;;;;;5092938;28;20051;-82
2022/01/24 11:21:00;;;;;;;38.47;22.80;;;;;;;;;;5070178;28;20044;-82
2022/01/24 11:23:26;;;;;;;40.10;22.88;;;;;;;;;;5094876;28;20444;-82
2022/01/24 11:25:57;;;;;;;41.30;25.30;;;;;;;;;;5111263;27;20032;-82
2022/01/24 11:28:24;;;;;;;50.13;28.30;;;;;;;;;;5093297;28;20044;-81
2022/01/24 11:30:59;;;;;;;48.42;30.40;;;6.20;1.00;;;;;;5080250;28;20273;-82
2022/01/24 11:33:36;;;;;;;44.13;28.70;;;;;;;;;;5096763;28;20042;-82
2022/01/24 11:36:03;;;;;;;45.17;24.50;;;;;;;;;;5074628;28;20032;-82
2022/01/24 11:38:47;;;;;;;47.30;30.08;;;;;;;;;;5076284;28;20032;-82
2022/01/24 11:41:31;;;;;;;42.67;27.90;;;;;;;;;;5088669;28;20122;-82
2022/01/24 11:44:08;;;;;;;38.80;21.80;;;;;;;;;;5096624;28;20105;-82
2022/01/24 11:46:42;;;;;;;26.05;12.43;;;;;;;;;;5097875;28;20404;-81
2022/01/24 11:49:10;;;;;;;51.78;31.25;;;;;;;;;;5102770;28;20468;-82
2022/01/24 11:51:37;;;;;;;26.75;14.80;;;;;;;;;;5083058;28;20555;-82
2022/01/24 11:54:04;;;;;;;37.92;22.23;;;;;;;;;;5078344;28;20082;-82
2022/01/24 11:56:32;;;;;;;41.03;25.70;;;;;;;;;;5101559;28;20040;-82
2022/01/24 11:59:25;;;;;;;41.25;25.58;;;;;;;;;;5098615;28;20052;-82
2022/01/24 12:02:06;;;;;;;45.30;24.83;;;;;;;;;;5097588;28;20052;-82
2022/01/24 12:04:48;;;;;;;43.42;24.73;;;;;;;;;;5099407;28;20559;-82
2022/01/24 12:07:18;;;;;;;32.47;15.77;;;;;;;;;;5094054;28;20857;-82
2022/01/24 12:09:44;;;;;;;37.78;17.63;;;;;;;;;;5116252;27;20046;-81
2022/01/24 12:12:34;;;;;;;48.92;28.98;;;;;;;;;;5099002;28;20101;-82
2022/01/24 12:15:00;;;;;;;40.53;22.35;;;;;;;;;;5084897;28;20070;-81
2022/01/24 12:17:46;;;;;;;19.52;9.85;;;;;;;;;;5093935;28;20054;-82
2022/01/24 12:20:42;;;;;;;44.83;25.40;;;;;;;;;;5096066;28;20051;-82
2022/01/24 12:23:21;;;;;;;32.50;20.92;;;;;;;;;;5095186;27;20058;-82
2022/01/24 12:25:50;;;;;;;20.42;11.30;;;;;;;;;;5093351;28;20328;-82
2022/01/24 12:28:23;;;;;;;29.40;18.77;;;;;;;;;;5085901;28;20039;-82
2022/01/24 12:31:00;;;;;;;39.45;20.23;;;;;;;;;;5093744;27;20510;-82
2022/01/24 12:33:38;;;;;;;43.40;27.90;;;;;;;;;;5089522;28;20051;-82
2022/01/24 12:36:05;;;;;;;49.25;31.30;;;;;;;;;;5095786;28;20039;-82
2022/01/24 12:38:48;;;;;;;39.53;22.92;;;;;;;;;;5098000;28;20187;-82
2022/01/24 12:41:26;;;;;;;50.33;33.72;;;;;;;;;;5099498;28;20047;-82
2022/01/24 12:46:26;;;;;;;34.30;23.35;;;;;;;;;;5094997;28;20066;-81
2022/01/24 12:48:53;;;;;;;45.38;23.65;;;;;;;;;;5094953;28;20089;-81
2022/01/24 12:51:23;;;;;;;47.50;28.95;;;;;;;;;;5073311;28;20580;-81
2022/01/24 12:53:50;;;;;;;47.55;31.02;;;;;;;;;;5076463;28;20527;-82
2022/01/24 12:56:18;;;;;;;39.13;21.15;;;;;;;;;;5075918;28;20330;-81
2022/01/24 12:58:49;;;;;;;40.75;26.10;;;;;;;;;;5092887;28;20828;-81
2022/01/24 13:01:21;;;;;;;49.53;31.90;;;;;;;;;;5096327;28;20497;-80
2022/01/24 13:03:56;;;;;;;51.83;27.42;;;;;;;;;;5076704;28;20447;-81
2022/01/24 13:06:22;;;;;;;39.40;20.88;;;;;;;;;;5077453;28;20071;-81
2022/01/24 13:09:13;;;;;;;26.88;13.35;;;6.00;1.00;;;;;;5089355;28;20535;-81
2022/01/24 13:11:46;;;;;;;44.83;27.05;;;6.00;1.00;;;;;;5059179;28;20584;-81
2022/01/24 13:14:36;;;;;;;39.15;23.35;;;;;;;;;;5075385;28;20097;-81
2022/01/24 13:22:43;;;;;;;47.05;25.23;;;;;;;;;;5091188;28;20055;-81
2022/01/24 13:25:09;;;;;;;;;;;;;;;;;;5090603;28;20047;-81
2022/01/24 13:27:40;;;;;;;31.60;17.48;;;;;;;;;;5075817;28;19927;-81
2022/01/24 13:30:07;;;;;;;33.35;19.30;;;;;;;;;;5101558;27;20052;-81
2022/01/24 13:32:53;;;;;;;40.83;24.63;;;6.10;1.00;;;;;;5075448;28;20512;-81
2022/01/24 13:35:27;;;;;;;46.08;27.63;;;;;;;;;;5089906;28;20048;-81
2022/01/24 13:38:06;;;;;;;23.92;12.85;;;5.80;1.00;;;;;;5094380;28;20075;-81
2022/01/24 13:40:35;;;;;;;56.70;32.17;;;;;;;;;;5091875;28;20047;-81
2022/01/24 13:43:02;;;;;;;53.47;33.85;;;;;;;;;;5072155;28;20107;-81
2022/01/24 13:45:28;;;;;;;47.38;26.05;;;;;;;;;;5075992;28;20078;-81
2022/01/24 13:48:01;;;;;;;52.80;29.58;;;;;;;;;;5090921;28;20412;-81
2022/01/24 13:50:28;;;;;;;56.00;33.53;;;;;;;;;;5096516;28;20444;-81
2022/01/24 13:52:54;;;;;;;28.55;12.38;;;;;;;;;;5091151;28;20039;-81
2022/01/24 13:55:23;;;;;;;43.90;22.17;;;5.70;1.00;;;;;;5094223;28;20432;-81
2022/01/24 13:57:53;;;;;;;33.88;19.15;;;;;;;;;;5091652;28;20113;-81
2022/01/24 14:00:27;;;;;;;48.42;29.77;;;;;;;;;;5070514;28;20039;-81
2022/01/24 14:03:10;;;;;;;44.58;26.23;;;;;;;;;;5095573;28;20120;-81
2022/01/24 14:05:36;;;;;;;50.35;30.08;;;;;;;;;;5094451;28;20032;-83
2022/01/24 14:08:17;;;;;;;42.13;25.00;;;;;;;;;;5097279;28;20034;-81
2022/01/24 14:10:44;;;;;;;54.88;34.20;;;;;;;;;;5088351;28;20562;-81
2022/01/24 14:13:11;;;;;;;36.60;19.77;;;;;;;;;;5096770;27;20496;-82
2022/01/24 14:15:53;;;;;;;34.20;17.23;;;;;;;;;;5091167;28;20044;-82
2022/01/24 14:18:28;;;;;;;39.85;22.08;;;5.60;1.00;;;;;;5072186;28;20044;-81
2022/01/24 14:20:55;;;;;;;44.67;25.02;;;;;;;;;;5078649;28;20044;-82
2022/01/24 14:23:36;;;;;;;41.35;23.35;;;;;;;;;;5088999;28;20088;-85
2022/01/24 14:26:18;;;;;;;50.92;33.22;;;;;;;;;;5082742;28;20036;-82
2022/01/24 14:28:45;;;;;;;51.20;29.40;;;;;;;;;;5089029;28;20116;-81
2022/01/24 14:31:13;;;;;;;45.78;23.65;;;;;;;;;;5097226;28;20100;-84
2022/01/24 14:33:40;;;;;;;30.83;16.90;;;;;;;;;;5071380;28;20036;-82
2022/01/24 14:36:13;;;;;;;43.13;22.80;;;;;;;;;;5087469;28;20056;-82
2022/01/24 14:38:44;;;;;;;41.70;20.95;;;;;;;;;;5076729;28;20046;-81
2022/01/24 14:41:14;;;;;;;45.20;26.23;;;;;;;;;;5067864;28;20067;-82
2022/01/24 14:46:37;;;;;;;51.47;27.33;;;;;;;;;;5097123;28;20079;-81
2022/01/24 14:49:04;;;;;;;38.67;19.75;;;;;;;;;;5092636;28;20052;-82
2022/01/24 14:51:32;;;;;;;29.58;13.88;;;;;;;;;;5093346;28;20043;-83
2022/01/24 14:54:00;;;;;;;54.65;32.83;;;;;;;;;;5100520;28;20132;-83
2022/01/24 14:56:26;;;;;;;53.65;29.00;;;;;;;;;;5076859;28;20047;-83
2022/01/24 14:58:53;;;;;;;51.58;28.40;;;;;;;;;;5091753;28;20051;-83
2022/01/24 15:01:19;;;;;;;42.85;22.20;;;;;;;;;;5077922;28;20089;-83
2022/01/24 15:03:46;;;;;;;46.53;23.73;;;;;;;;;;5080031;28;20040;-83
2022/01/24 15:06:13;;;;;;;56.50;35.22;;;;;;;;;;5099639;28;20031;-81
2022/01/24 15:08:40;;;;;;;53.22;29.35;;;;;;;;;;5105038;28;20055;-83
2022/01/24 15:11:08;;;;;;;24.15;12.15;;;;;;;;;;5099293;28;20059;-83
2022/01/24 15:13:42;;;;;;;46.22;25.90;;;5.00;28.90;;;;;;5098425;27;20610;-83
2022/01/24 15:16:18;;;;;;;42.95;23.17;;;;;;;;;;5100093;28;20809;-83
2022/01/24 15:26:51;;;;;;;52.85;29.95;;;;;;;;;;5093645;28;20362;-83
2022/01/24 15:29:18;;;;;;;47.90;25.08;;;;;;;;;;5075485;28;20291;-83
2022/01/24 15:31:47;;;;;;;51.75;26.92;;;5.10;1.00;;;;;;5098908;28;20040;-82
2022/01/24 15:34:14;;;;;;;56.00;31.33;;;;;;;;;;5076439;28;20039;-82
2022/01/24 15:36:41;;;;;;;53.20;33.13;;;;;;;;;;5098432;28;20716;-82
2022/01/24 15:39:08;;;;;;;57.33;34.97;;;;;;;;;;5099215;28;20052;-83
2022/01/24 15:41:44;;;;;;;48.88;26.90;;;5.10;1.00;;;;;;5074183;28;20042;-82
2022/01/24 15:44:33;;;;;;;58.72;32.05;;;;;;;;;;5091261;28;20071;-82
2022/01/24 15:47:16;;;;;;;51.65;30.77;;;;;;;;;;5097241;27;20085;-83
2022/01/24 15:49:44;;;;;;;52.20;27.77;;;;;;;;;;5099130;27;20072;-83
2022/01/24 15:52:10;;;;;;;51.63;30.30;;;;;;;;;;5078608;27;20404;-84
2022/01/24 15:54:36;;;;;;;50.60;27.05;;;;;;;;;;5088078;27;20064;-83
2022/01/24 15:59:47;;;;;;;51.43;28.93;;;;;;;;;;5099568;27;20047;-82
2022/01/24 16:02:13;;;;;;;62.03;35.17;;;;;;;;;;5081329;27;20304;-82
2022/01/24 16:04:40;;;;;;;55.30;32.95;;;;;;;;;;5097703;27;20079;-81
2022/01/24 16:07:07;;;;;;;63.05;35.45;;;;;;;;;;5083804;27;20095;-82
2022/01/24 16:09:34;;;;;;;59.03;36.28;;;;;;;;;;5082946;27;20438;-82
2022/01/24 16:12:00;;;;;;;55.53;33.63;;;;;;;;;;5081037;27;20047;-82
2022/01/24 16:14:26;;;;;;;55.15;30.92;;;;;;;;;;5084128;27;20047;-82
2022/01/24 16:16:53;;;;;;;59.30;34.67;;;;;;;;;;5079201;27;20039;-82
2022/01/24 16:19:22;;;;;;;56.40;35.40;;;;;;;;;;5101795;27;20095;-82
2022/01/24 16:22:14;;;;;;;55.60;30.70;;;;;;;;;;5095564;27;20054;-80
2022/01/24 16:27:13;;;;;;;53.50;30.75;;;;;;;;;;5119255;27;20071;-82
2022/01/24 16:29:39;;;;;;;54.65;31.00;;;;;;;;;;5080966;27;20061;-83
2022/01/24 16:32:06;;;;;;;57.22;35.30;;;;;;;;;;5093894;27;20051;-83
2022/01/24 16:34:32;;;;;;;59.03;34.45;;;;;;;;;;5079725;27;20043;-81
2022/01/24 16:37:06;;;;;;;38.38;19.50;;;;;;;;;;5099759;27;20054;-81
2022/01/24 16:39:35;;;;;;;49.95;27.33;;;;;;;;;;5099960;27;20052;-82